Time;durP1;ratioP1;P1;durP2;ratioP2;P2;SDS_P1;SDS_P2;PMS_P1;PMS_P2;Temp;Humidity;BMP_temperature;BMP_pressure;BME280_temperature;BME280_humidity;BME280_pressure;Samples;Min_cycle;Max_cycle;Signal;HPM_P1;HPM_P2
2022/06/03 00:10:53;;;;;;;7.27;4.97;;;;;;;10.98;63.42;100825.78;30868742;28;96705;-79
2022/06/03 00:26:09;;;;;;;9.27;5.53;;;;;;;10.68;63.82;100824.41;30867144;28;96788;-79
2022/06/03 00:41:15;;;;;;;8.17;5.90;;;;;;;10.38;65.14;100822.00;30865926;28;96822;-80
2022/06/03 00:56:24;;;;;;;13.60;6.93;;;;;;;10.28;66.10;100819.38;30864316;28;96728;-80
2022/06/03 01:12:02;;;;;;;16.63;9.00;;;;;;;10.05;66.47;100829.66;30861106;28;98745;-79
2022/06/03 01:27:03;;;;;;;17.40;9.00;;;;;;;9.84;67.55;100824.59;30861543;28;98512;-78
2022/06/03 01:42:15;;;;;;;13.98;8.65;;;;;;;9.69;68.28;100812.78;30861288;28;96895;-79
2022/06/03 01:57:46;;;;;;;17.47;7.40;;;;;;;9.42;69.01;100817.16;30859198;28;97097;-80
2022/06/03 02:12:55;;;;;;;12.20;7.40;;;;;;;9.22;70.03;100811.06;30856463;28;96731;-79
2022/06/03 02:28:33;;;;;;;12.20;7.77;;;;;;;8.99;70.43;100803.44;30907590;28;96731;-79
2022/06/03 02:43:34;;;;;;;17.50;10.03;;;;;;;9.01;70.86;100814.78;30866101;28;97444;-79
2022/06/03 02:58:53;;;;;;;9.27;6.80;;;;;;;8.93;71.42;100817.31;30854498;28;96553;-80
2022/06/03 03:13:59;;;;;;;9.27;7.17;;;;;;;8.92;72.05;100827.09;30852225;28;97871;-80
2022/06/03 03:29:39;;;;;;;9.23;6.20;;;;;;;8.92;72.68;100826.28;30864266;28;96667;-79
2022/06/03 03:45:09;;;;;;;8.93;6.83;;;;;;;9.01;73.49;100837.84;30868561;28;97506;-79
2022/06/03 04:01:11;;;;;;;12.30;7.37;;;;;;;9.23;73.88;100845.47;30867028;28;96870;-79
2022/06/03 04:16:39;;;;;;;11.17;7.20;;;;;;;9.61;73.80;100851.63;30860435;28;96832;-81
2022/06/03 04:32:03;;;;;;;10.80;8.80;;;;;;;10.14;73.24;100849.19;30862842;28;97346;-80
2022/06/03 04:47:27;;;;;;;11.33;8.60;;;;;;;10.72;73.23;100855.09;30862836;28;96692;-79
2022/06/03 05:02:45;;;;;;;11.30;9.43;;;;;;;11.30;71.72;100848.28;30860298;28;96773;-80
2022/06/03 05:18:01;;;;;;;10.87;8.30;;;;;;;12.00;71.01;100857.91;30898412;28;98903;-82
2022/06/03 05:33:10;;;;;;;13.50;8.17;;;;;;;12.83;69.99;100866.81;30981929;28;96736;-79
2022/06/03 05:48:23;;;;;;;10.83;7.20;;;;;;;13.70;67.89;100850.88;30989937;28;97479;-78
2022/06/03 06:03:30;;;;;;;;;;;;;;;14.59;66.32;100856.88;30977152;28;97575;-76
2022/06/03 06:18:42;;;;;;;8.10;5.87;;;;;;;15.47;63.56;100849.13;30979805;28;97187;-78
2022/06/03 06:33:48;;;;;;;6.97;3.97;;;;;;;16.48;60.59;100853.78;30967714;28;99987;-73
2022/06/03 06:48:52;;;;;;;7.33;3.67;;;;;;;17.53;56.11;100843.97;30975582;28;97006;-81
2022/06/03 07:03:55;;;;;;;6.13;3.10;;;;;;;18.13;50.69;100846.06;31015940;28;97574;-77
2022/06/03 07:34:49;;;;;;;8.40;2.93;;;;;;;19.10;45.09;100835.72;30986592;28;97037;-77
2022/06/03 07:49:56;;;;;;;3.97;2.60;;;;;;;19.64;43.52;100815.81;30989642;28;96824;-80
2022/06/03 08:05:05;;;;;;;6.20;2.90;;;;;;;20.06;42.40;100802.72;30988449;28;97229;-79
2022/06/03 08:20:06;;;;;;;7.30;3.87;;;;;;;20.77;41.09;100804.25;30986080;28;97213;-75
2022/06/03 08:35:12;;;;;;;5.63;3.43;;;;;;;21.08;40.86;100812.50;31009541;28;96696;-73
2022/06/03 08:50:25;;;;;;;3.47;2.30;;;;;;;21.44;39.30;100797.28;31112298;28;96579;-73
2022/06/03 09:05:47;;;;;;;6.63;3.03;;;;;;;21.78;39.34;100784.94;31110609;28;97426;-66
2022/06/03 09:20:54;;;;;;;7.40;4.30;;;;;;;22.26;38.32;100791.31;31079087;28;97277;-73
2022/06/03 09:35:59;;;;;;;6.17;3.50;;;;;;;22.58;36.86;100785.63;30855613;28;97636;-70
2022/06/03 09:51:08;;;;;;;4.60;2.50;;;;;;;23.50;34.84;100775.09;30848651;28;97110;-67
2022/06/03 10:06:43;;;;;;;5.67;2.93;;;;;;;24.40;31.38;100758.16;30851670;28;96897;-66
2022/06/03 10:21:31;;;;;;;4.03;1.83;;;;;;;24.78;30.48;100762.84;30853355;28;97256;-68
2022/06/03 10:36:42;;;;;;;2.70;1.53;;;;;;;25.74;27.94;100746.25;30852104;28;96720;-66
2022/06/03 11:07:22;;;;;;;3.13;1.80;;;;;;;25.58;26.85;100716.09;30849591;28;96757;-67
2022/06/03 11:22:33;;;;;;;3.00;1.80;;;;;;;25.82;27.57;100696.66;30964001;28;96838;-66
2022/06/03 11:37:39;;;;;;;2.63;1.60;;;;;;;26.01;26.73;100673.38;30969420;28;96700;-66
2022/06/03 11:52:39;;;;;;;1.57;1.30;;;;;;;26.12;26.03;100657.06;30985817;28;96785;-67
2022/06/03 12:07:49;;;;;;;4.00;2.17;;;;;;;26.52;25.77;100639.28;30985693;28;96812;-65
2022/06/03 12:22:50;;;;;;;2.23;1.43;;;;;;;27.20;25.01;100619.28;30982794;28;96779;-68
2022/06/03 12:38:19;;;;;;;2.72;1.58;;;;;;;26.57;26.05;100606.50;30985343;28;96757;-68
2022/06/03 12:53:35;;;;;;;3.43;1.80;;;;;;;26.85;25.67;100577.13;30980008;28;97086;-67
2022/06/03 13:09:34;;;;;;;3.80;1.80;;;;;;;26.68;26.10;100555.44;30974806;28;97931;-68
2022/06/03 13:24:30;;;;;;;4.23;2.00;;;;;;;26.79;26.48;100542.66;30969449;28;97101;-66
2022/06/03 13:39:50;;;;;;;4.37;1.83;;;;;;;26.35;27.42;100531.06;30971210;28;97036;-66
2022/06/03 13:54:59;;;;;;;4.00;1.87;;;;;;;25.89;28.10;100495.34;30966495;28;96883;-65
2022/06/03 14:10:06;;;;;;;2.40;1.70;;;;;;;25.72;28.71;100487.31;30965665;28;97468;-65
2022/06/03 14:25:30;;;;;;;2.50;2.07;;;;;;;25.31;29.50;100490.56;30966404;28;97216;-65
2022/06/03 14:40:36;;;;;;;3.60;2.10;;;;;;;25.33;30.15;100482.19;30966263;28;96940;-65
2022/06/03 14:55:40;;;;;;;2.47;1.60;;;;;;;24.93;30.84;100467.09;30916931;28;97257;-66
2022/06/03 15:10:47;;;;;;;3.40;2.30;;;;;;;24.65;31.17;100442.59;30848897;28;96692;-65
2022/06/03 15:25:52;;;;;;;3.83;2.13;;;;;;;24.67;31.85;100443.19;30856145;28;97206;-65
2022/06/03 15:40:59;;;;;;;2.33;2.00;;;;;;;24.73;31.61;100440.50;30866793;28;96805;-65
2022/06/03 15:56:24;;;;;;;5.60;2.10;;;;;;;24.67;31.85;100431.47;30865399;28;96758;-65
2022/06/03 16:11:31;;;;;;;4.00;2.27;;;;;;;24.70;32.41;100439.13;30861774;28;97263;-65
2022/06/03 16:26:37;;;;;;;3.30;2.10;;;;;;;24.45;32.45;100418.72;30861127;28;96850;-67
2022/06/03 16:41:40;;;;;;;4.10;3.00;;;;;;;24.42;32.98;100399.34;30858352;28;96792;-67
2022/06/03 16:56:40;;;;;;;4.00;2.43;;;;;;;24.20;33.63;100374.91;30858502;28;96755;-65
2022/06/03 17:11:41;;;;;;;;;;;;;;;23.95;34.09;100341.72;30857347;28;96816;-65
2022/06/03 17:27:00;;;;;;;6.27;2.97;;;;;;;23.51;35.17;100322.69;30857434;28;97662;-66
2022/06/03 17:42:07;;;;;;;6.13;2.80;;;;;;;23.22;36.01;100324.75;30845198;28;96847;-66
2022/06/03 17:57:19;;;;;;;4.33;2.50;;;;;;;22.97;36.58;100329.53;30846259;28;97021;-69
2022/06/03 18:12:26;;;;;;;6.00;2.80;;;;;;;22.63;37.29;100329.56;30844871;28;97120;-70
2022/06/03 18:28:01;;;;;;;7.00;2.97;;;;;;;22.37;38.38;100341.09;30842218;28;96745;-68
2022/06/03 18:43:26;;;;;;;5.97;2.73;;;;;;;21.88;39.57;100345.03;30842934;28;97222;-68
2022/06/03 18:58:43;;;;;;;8.77;2.97;;;;;;;21.31;40.97;100348.50;30855046;28;97064;-71
2022/06/03 19:14:05;;;;;;;6.23;3.20;;;;;;;20.77;42.39;100351.31;30862948;28;96882;-67
2022/06/03 19:29:14;;;;;;;7.23;3.70;;;;;;;20.38;43.11;100358.97;30859922;28;96803;-67
2022/06/03 19:44:17;;;;;;;5.00;3.17;;;;;;;19.89;44.42;100359.84;30860766;28;97342;-74
2022/06/03 19:59:42;;;;;;;5.50;3.67;;;;;;;19.42;45.52;100370.34;30858954;28;96676;-68
2022/06/03 20:14:52;;;;;;;9.87;3.70;;;;;;;19.11;46.36;100359.44;30857646;28;96780;-67
2022/06/03 20:30:21;;;;;;;9.70;3.60;;;;;;;18.82;47.40;100341.19;30856521;28;97511;-67
2022/06/03 20:45:56;;;;;;;6.43;3.93;;;;;;;18.64;48.35;100336.59;30854531;28;96783;-69
2022/06/03 21:01:05;;;;;;;4.73;3.80;;;;;;;18.39;48.94;100332.00;30853071;28;97386;-68
2022/06/03 21:16:06;;;;;;;5.43;3.87;;;;;;;18.10;49.34;100327.00;30850739;28;97623;-70
2022/06/03 21:31:06;;;;;;;6.75;4.05;;;;;;;18.07;49.32;100335.53;30854965;28;97388;-68
2022/06/03 21:46:14;;;;;;;5.43;3.88;;;;;;;18.13;48.94;100323.03;30860515;28;96839;-68
2022/06/03 22:01:15;;;;;;;7.13;4.20;;;;;;;18.01;48.97;100336.38;30892841;28;97097;-67
2022/06/03 22:16:16;;;;;;;9.90;3.90;;;;;;;17.86;49.11;100336.63;30978896;28;97835;-67
2022/06/03 22:31:30;;;;;;;8.77;4.70;;;;;;;17.77;49.59;100316.38;30977376;28;97590;-67
2022/06/03 22:46:33;;;;;;;7.83;4.83;;;;;;;17.67;49.75;100307.91;30978581;28;96831;-67
2022/06/03 23:01:36;;;;;;;5.60;4.03;;;;;;;17.62;50.13;100283.47;30977309;28;96700;-67
2022/06/03 23:16:36;;;;;;;7.27;4.17;;;;;;;17.41;50.69;100283.59;30976444;28;97065;-68
2022/06/03 23:31:37;;;;;;;5.43;3.92;;;;;;;17.28;51.14;100293.53;30973393;28;97194;-68
2022/06/03 23:46:37;;;;;;;6.90;4.40;;;;;;;17.25;51.43;100301.03;30988323;28;96795;-68
